sensor_id;sensor_type;location;lat;lon;timestamp;P1;durP1;ratioP1;P2;durP2;ratioP2
6979;SDS011;3530;52.832;10.680;2023-05-16T00:00:53;3.03;;;2.63;;
6979;SDS011;3530;52.832;10.680;2023-05-16T00:03:39;2.90;;;2.53;;
6979;SDS011;3530;52.832;10.680;2023-05-16T00:06:26;5.32;;;3.00;;
6979;SDS011;3530;52.832;10.680;2023-05-16T00:09:12;1.90;;;1.80;;
6979;SDS011;3530;52.832;10.680;2023-05-16T00:11:58;3.88;;;2.65;;
6979;SDS011;3530;52.832;10.680;2023-05-16T00:14:43;4.15;;;3.38;;
6979;SDS011;3530;52.832;10.680;2023-05-16T00:17:29;3.28;;;2.42;;
6979;SDS011;3530;52.832;10.680;2023-05-16T00:20:15;3.55;;;2.55;;
6979;SDS011;3530;52.832;10.680;2023-05-16T00:23:03;4.18;;;2.67;;
6979;SDS011;3530;52.832;10.680;2023-05-16T00:25:48;2.40;;;2.30;;
6979;SDS011;3530;52.832;10.680;2023-05-16T00:28:34;2.40;;;2.20;;
6979;SDS011;3530;52.832;10.680;2023-05-16T00:31:20;3.10;;;2.03;;
6979;SDS011;3530;52.832;10.680;2023-05-16T00:34:06;2.58;;;2.42;;
6979;SDS011;3530;52.832;10.680;2023-05-16T00:36:52;3.63;;;2.72;;
6979;SDS011;3530;52.832;10.680;2023-05-16T00:39:38;2.38;;;2.20;;
6979;SDS011;3530;52.832;10.680;2023-05-16T00:42:23;2.03;;;1.88;;
6979;SDS011;3530;52.832;10.680;2023-05-16T00:45:09;3.15;;;2.30;;
6979;SDS011;3530;52.832;10.680;2023-05-16T00:47:55;4.05;;;2.10;;
6979;SDS011;3530;52.832;10.680;2023-05-16T00:50:41;3.05;;;2.10;;
6979;SDS011;3530;52.832;10.680;2023-05-16T00:53:26;2.20;;;2.00;;
6979;SDS011;3530;52.832;10.680;2023-05-16T00:56:12;2.55;;;2.17;;
6979;SDS011;3530;52.832;10.680;2023-05-16T00:58:58;2.75;;;2.35;;
6979;SDS011;3530;52.832;10.680;2023-05-16T01:01:46;4.65;;;2.60;;
6979;SDS011;3530;52.832;10.680;2023-05-16T01:04:32;4.18;;;1.95;;
6979;SDS011;3530;52.832;10.680;2023-05-16T01:07:18;3.33;;;2.47;;
6979;SDS011;3530;52.832;10.680;2023-05-16T01:10:04;2.22;;;2.03;;
6979;SDS011;3530;52.832;10.680;2023-05-16T01:13:00;2.92;;;2.70;;
6979;SDS011;3530;52.832;10.680;2023-05-16T01:16:04;2.47;;;1.75;;
6979;SDS011;3530;52.832;10.680;2023-05-16T01:19:06;2.30;;;2.20;;
6979;SDS011;3530;52.832;10.680;2023-05-16T01:22:17;5.15;;;2.03;;
6979;SDS011;3530;52.832;10.680;2023-05-16T01:28:23;1.70;;;1.60;;
6979;SDS011;3530;52.832;10.680;2023-05-16T01:31:10;3.00;;;2.50;;
6979;SDS011;3530;52.832;10.680;2023-05-16T01:33:55;2.10;;;2.00;;
6979;SDS011;3530;52.832;10.680;2023-05-16T01:36:50;2.28;;;1.88;;
6979;SDS011;3530;52.832;10.680;2023-05-16T01:39:54;2.15;;;2.05;;
6979;SDS011;3530;52.832;10.680;2023-05-16T01:42:43;2.67;;;2.03;;
6979;SDS011;3530;52.832;10.680;2023-05-16T01:45:30;2.17;;;2.08;;
6979;SDS011;3530;52.832;10.680;2023-05-16T01:48:19;6.35;;;3.08;;
6979;SDS011;3530;52.832;10.680;2023-05-16T01:51:11;2.40;;;2.20;;
6979;SDS011;3530;52.832;10.680;2023-05-16T01:53:57;4.03;;;2.28;;
6979;SDS011;3530;52.832;10.680;2023-05-16T01:56:50;2.38;;;2.17;;
6979;SDS011;3530;52.832;10.680;2023-05-16T01:59:37;5.15;;;2.40;;
6979;SDS011;3530;52.832;10.680;2023-05-16T02:02:23;3.08;;;2.08;;
6979;SDS011;3530;52.832;10.680;2023-05-16T02:05:09;4.47;;;2.33;;
6979;SDS011;3530;52.832;10.680;2023-05-16T02:07:54;3.13;;;2.15;;
6979;SDS011;3530;52.832;10.680;2023-05-16T02:10:40;2.15;;;2.05;;
6979;SDS011;3530;52.832;10.680;2023-05-16T02:13:26;2.30;;;2.10;;
6979;SDS011;3530;52.832;10.680;2023-05-16T02:16:11;2.60;;;2.40;;
6979;SDS011;3530;52.832;10.680;2023-05-16T02:18:57;3.72;;;2.30;;
6979;SDS011;3530;52.832;10.680;2023-05-16T02:21:43;2.38;;;2.28;;
6979;SDS011;3530;52.832;10.680;2023-05-16T02:24:28;2.40;;;2.00;;
6979;SDS011;3530;52.832;10.680;2023-05-16T02:27:14;4.45;;;2.53;;
6979;SDS011;3530;52.832;10.680;2023-05-16T02:30:00;2.08;;;1.98;;
6979;SDS011;3530;52.832;10.680;2023-05-16T02:32:45;2.95;;;2.38;;
6979;SDS011;3530;52.832;10.680;2023-05-16T02:35:31;3.22;;;2.80;;
6979;SDS011;3530;52.832;10.680;2023-05-16T02:38:16;2.55;;;2.17;;
6979;SDS011;3530;52.832;10.680;2023-05-16T02:41:05;2.25;;;2.05;;
6979;SDS011;3530;52.832;10.680;2023-05-16T02:43:50;2.15;;;1.80;;
6979;SDS011;3530;52.832;10.680;2023-05-16T02:46:36;1.90;;;1.80;;
6979;SDS011;3530;52.832;10.680;2023-05-16T02:49:22;2.13;;;1.77;;
6979;SDS011;3530;52.832;10.680;2023-05-16T02:52:07;3.00;;;2.10;;
6979;SDS011;3530;52.832;10.680;2023-05-16T02:54:53;2.15;;;2.00;;
6979;SDS011;3530;52.832;10.680;2023-05-16T02:57:39;4.80;;;2.03;;
6979;SDS011;3530;52.832;10.680;2023-05-16T03:00:25;3.25;;;1.70;;
6979;SDS011;3530;52.832;10.680;2023-05-16T03:03:11;3.75;;;1.70;;
6979;SDS011;3530;52.832;10.680;2023-05-16T03:05:56;2.38;;;2.05;;
6979;SDS011;3530;52.832;10.680;2023-05-16T03:08:42;3.50;;;1.80;;
6979;SDS011;3530;52.832;10.680;2023-05-16T03:11:28;4.03;;;2.20;;
6979;SDS011;3530;52.832;10.680;2023-05-16T03:14:13;2.90;;;1.73;;
6979;SDS011;3530;52.832;10.680;2023-05-16T03:16:59;2.40;;;1.90;;
6979;SDS011;3530;52.832;10.680;2023-05-16T03:19:45;4.07;;;2.13;;
6979;SDS011;3530;52.832;10.680;2023-05-16T03:22:30;2.13;;;1.95;;
6979;SDS011;3530;52.832;10.680;2023-05-16T03:25:16;4.65;;;2.28;;
6979;SDS011;3530;52.832;10.680;2023-05-16T03:28:02;1.80;;;1.70;;
6979;SDS011;3530;52.832;10.680;2023-05-16T03:30:49;2.58;;;2.13;;
6979;SDS011;3530;52.832;10.680;2023-05-16T03:33:35;3.38;;;1.98;;
6979;SDS011;3530;52.832;10.680;2023-05-16T03:36:20;1.73;;;1.60;;
6979;SDS011;3530;52.832;10.680;2023-05-16T03:39:08;2.38;;;1.88;;
6979;SDS011;3530;52.832;10.680;2023-05-16T03:41:54;2.63;;;2.05;;
6979;SDS011;3530;52.832;10.680;2023-05-16T03:44:41;1.85;;;1.73;;
6979;SDS011;3530;52.832;10.680;2023-05-16T03:47:27;3.80;;;1.63;;
6979;SDS011;3530;52.832;10.680;2023-05-16T03:50:15;2.95;;;2.00;;
6979;SDS011;3530;52.832;10.680;2023-05-16T03:53:01;3.30;;;1.67;;
6979;SDS011;3530;52.832;10.680;2023-05-16T03:55:48;2.17;;;1.38;;
6979;SDS011;3530;52.832;10.680;2023-05-16T03:58:33;1.77;;;1.60;;
6979;SDS011;3530;52.832;10.680;2023-05-16T04:01:19;1.85;;;1.75;;
6979;SDS011;3530;52.832;10.680;2023-05-16T04:04:04;2.80;;;1.80;;
6979;SDS011;3530;52.832;10.680;2023-05-16T04:06:50;3.42;;;2.35;;
6979;SDS011;3530;52.832;10.680;2023-05-16T04:09:36;1.83;;;1.73;;
6979;SDS011;3530;52.832;10.680;2023-05-16T04:12:21;4.88;;;1.98;;
6979;SDS011;3530;52.832;10.680;2023-05-16T04:15:07;3.28;;;1.80;;
6979;SDS011;3530;52.832;10.680;2023-05-16T04:17:53;4.00;;;1.30;;
6979;SDS011;3530;52.832;10.680;2023-05-16T04:20:40;2.30;;;1.83;;
6979;SDS011;3530;52.832;10.680;2023-05-16T04:23:26;3.45;;;2.05;;
6979;SDS011;3530;52.832;10.680;2023-05-16T04:26:12;1.77;;;1.58;;
6979;SDS011;3530;52.832;10.680;2023-05-16T04:28:58;4.22;;;1.73;;
6979;SDS011;3530;52.832;10.680;2023-05-16T04:31:44;2.10;;;1.30;;
6979;SDS011;3530;52.832;10.680;2023-05-16T04:34:30;2.95;;;1.40;;
6979;SDS011;3530;52.832;10.680;2023-05-16T04:37:16;1.50;;;1.20;;
6979;SDS011;3530;52.832;10.680;2023-05-16T04:40:01;3.47;;;1.98;;
6979;SDS011;3530;52.832;10.680;2023-05-16T04:42:47;3.00;;;1.70;;
6979;SDS011;3530;52.832;10.680;2023-05-16T04:45:33;6.13;;;1.75;;
6979;SDS011;3530;52.832;10.680;2023-05-16T04:48:18;3.05;;;1.50;;
6979;SDS011;3530;52.832;10.680;2023-05-16T04:51:04;3.33;;;1.90;;
6979;SDS011;3530;52.832;10.680;2023-05-16T04:53:49;4.75;;;1.80;;
6979;SDS011;3530;52.832;10.680;2023-05-16T04:56:35;5.72;;;1.80;;
6979;SDS011;3530;52.832;10.680;2023-05-16T04:59:21;3.90;;;1.60;;
6979;SDS011;3530;52.832;10.680;2023-05-16T05:02:07;3.33;;;1.70;;
6979;SDS011;3530;52.832;10.680;2023-05-16T05:04:52;4.05;;;1.70;;
6979;SDS011;3530;52.832;10.680;2023-05-16T05:07:38;5.22;;;2.10;;
6979;SDS011;3530;52.832;10.680;2023-05-16T05:10:25;6.38;;;2.00;;
6979;SDS011;3530;52.832;10.680;2023-05-16T05:13:12;2.70;;;1.80;;
6979;SDS011;3530;52.832;10.680;2023-05-16T05:15:58;3.78;;;1.98;;
6979;SDS011;3530;52.832;10.680;2023-05-16T05:18:44;5.88;;;2.78;;
6979;SDS011;3530;52.832;10.680;2023-05-16T05:21:29;7.55;;;2.50;;
6979;SDS011;3530;52.832;10.680;2023-05-16T05:24:15;4.20;;;2.25;;
6979;SDS011;3530;52.832;10.680;2023-05-16T05:27:01;6.57;;;2.10;;
6979;SDS011;3530;52.832;10.680;2023-05-16T05:29:46;5.20;;;2.38;;
6979;SDS011;3530;52.832;10.680;2023-05-16T05:32:32;10.02;;;2.53;;
6979;SDS011;3530;52.832;10.680;2023-05-16T05:35:18;6.50;;;2.40;;
6979;SDS011;3530;52.832;10.680;2023-05-16T05:38:03;9.77;;;2.17;;
6979;SDS011;3530;52.832;10.680;2023-05-16T05:40:49;12.30;;;3.25;;
6979;SDS011;3530;52.832;10.680;2023-05-16T05:43:35;4.82;;;2.10;;
6979;SDS011;3530;52.832;10.680;2023-05-16T05:46:21;7.68;;;2.38;;
6979;SDS011;3530;52.832;10.680;2023-05-16T05:49:06;6.47;;;2.30;;
6979;SDS011;3530;52.832;10.680;2023-05-16T05:51:52;4.63;;;2.08;;
6979;SDS011;3530;52.832;10.680;2023-05-16T05:54:38;6.70;;;2.50;;
6979;SDS011;3530;52.832;10.680;2023-05-16T05:57:23;7.50;;;2.50;;
6979;SDS011;3530;52.832;10.680;2023-05-16T06:00:09;5.32;;;1.98;;
6979;SDS011;3530;52.832;10.680;2023-05-16T06:02:55;4.13;;;2.00;;
6979;SDS011;3530;52.832;10.680;2023-05-16T06:05:41;11.52;;;2.75;;
6979;SDS011;3530;52.832;10.680;2023-05-16T06:08:27;8.48;;;2.53;;
6979;SDS011;3530;52.832;10.680;2023-05-16T06:11:12;7.28;;;2.25;;
6979;SDS011;3530;52.832;10.680;2023-05-16T06:13:58;2.85;;;2.10;;
6979;SDS011;3530;52.832;10.680;2023-05-16T06:16:44;6.70;;;1.77;;
6979;SDS011;3530;52.832;10.680;2023-05-16T06:19:29;8.57;;;2.72;;
6979;SDS011;3530;52.832;10.680;2023-05-16T06:22:15;4.75;;;1.83;;
6979;SDS011;3530;52.832;10.680;2023-05-16T06:25:01;3.13;;;1.85;;
6979;SDS011;3530;52.832;10.680;2023-05-16T06:27:46;12.63;;;2.22;;
6979;SDS011;3530;52.832;10.680;2023-05-16T06:30:32;6.80;;;2.00;;
6979;SDS011;3530;52.832;10.680;2023-05-16T06:33:18;5.20;;;2.33;;
6979;SDS011;3530;52.832;10.680;2023-05-16T06:36:03;6.35;;;2.10;;
6979;SDS011;3530;52.832;10.680;2023-05-16T06:38:49;6.47;;;2.00;;
6979;SDS011;3530;52.832;10.680;2023-05-16T06:41:35;5.70;;;2.00;;
6979;SDS011;3530;52.832;10.680;2023-05-16T06:44:21;6.50;;;1.90;;
6979;SDS011;3530;52.832;10.680;2023-05-16T06:47:07;6.13;;;1.60;;
6979;SDS011;3530;52.832;10.680;2023-05-16T06:49:53;6.45;;;1.52;;
6979;SDS011;3530;52.832;10.680;2023-05-16T06:52:38;1.33;;;1.23;;
6979;SDS011;3530;52.832;10.680;2023-05-16T06:55:24;3.90;;;1.90;;
6979;SDS011;3530;52.832;10.680;2023-05-16T06:58:10;6.72;;;2.55;;
6979;SDS011;3530;52.832;10.680;2023-05-16T07:00:55;6.70;;;1.70;;
6979;SDS011;3530;52.832;10.680;2023-05-16T07:03:41;5.15;;;1.98;;
6979;SDS011;3530;52.832;10.680;2023-05-16T07:06:27;2.10;;;1.55;;
6979;SDS011;3530;52.832;10.680;2023-05-16T07:09:12;4.10;;;1.60;;
6979;SDS011;3530;52.832;10.680;2023-05-16T07:11:58;8.98;;;2.17;;
6979;SDS011;3530;52.832;10.680;2023-05-16T07:14:44;4.05;;;1.58;;
6979;SDS011;3530;52.832;10.680;2023-05-16T07:17:29;6.22;;;1.42;;
6979;SDS011;3530;52.832;10.680;2023-05-16T07:20:15;6.15;;;1.80;;
6979;SDS011;3530;52.832;10.680;2023-05-16T07:23:01;4.07;;;1.80;;
6979;SDS011;3530;52.832;10.680;2023-05-16T07:25:46;4.82;;;1.70;;
6979;SDS011;3530;52.832;10.680;2023-05-16T07:28:32;3.03;;;1.60;;
6979;SDS011;3530;52.832;10.680;2023-05-16T07:31:18;2.10;;;1.70;;
6979;SDS011;3530;52.832;10.680;2023-05-16T07:34:03;2.67;;;1.60;;
6979;SDS011;3530;52.832;10.680;2023-05-16T07:36:49;3.08;;;1.70;;
6979;SDS011;3530;52.832;10.680;2023-05-16T07:39:35;3.22;;;1.73;;
6979;SDS011;3530;52.832;10.680;2023-05-16T07:42:20;6.43;;;2.25;;
6979;SDS011;3530;52.832;10.680;2023-05-16T07:45:06;3.30;;;1.60;;
6979;SDS011;3530;52.832;10.680;2023-05-16T07:47:52;4.38;;;1.67;;
6979;SDS011;3530;52.832;10.680;2023-05-16T07:50:38;5.65;;;1.38;;
6979;SDS011;3530;52.832;10.680;2023-05-16T07:53:23;5.47;;;2.38;;
6979;SDS011;3530;52.832;10.680;2023-05-16T07:56:09;5.18;;;1.60;;
6979;SDS011;3530;52.832;10.680;2023-05-16T07:58:55;3.28;;;1.50;;
6979;SDS011;3530;52.832;10.680;2023-05-16T08:01:40;5.38;;;1.70;;
6979;SDS011;3530;52.832;10.680;2023-05-16T08:04:26;3.47;;;1.48;;
6979;SDS011;3530;52.832;10.680;2023-05-16T08:07:12;5.45;;;1.75;;
6979;SDS011;3530;52.832;10.680;2023-05-16T08:09:57;4.43;;;1.52;;
6979;SDS011;3530;52.832;10.680;2023-05-16T08:12:43;3.50;;;2.38;;
6979;SDS011;3530;52.832;10.680;2023-05-16T08:15:29;1.20;;;1.10;;
6979;SDS011;3530;52.832;10.680;2023-05-16T08:18:14;3.20;;;1.48;;
6979;SDS011;3530;52.832;10.680;2023-05-16T08:21:00;2.58;;;1.85;;
6979;SDS011;3530;52.832;10.680;2023-05-16T08:23:46;2.63;;;1.92;;
6979;SDS011;3530;52.832;10.680;2023-05-16T08:26:31;2.10;;;1.45;;
6979;SDS011;3530;52.832;10.680;2023-05-16T08:29:17;3.72;;;1.30;;
6979;SDS011;3530;52.832;10.680;2023-05-16T08:32:03;1.30;;;1.25;;
6979;SDS011;3530;52.832;10.680;2023-05-16T08:34:49;6.40;;;1.88;;
6979;SDS011;3530;52.832;10.680;2023-05-16T08:37:34;4.68;;;1.98;;
6979;SDS011;3530;52.832;10.680;2023-05-16T08:40:21;3.85;;;2.10;;
6979;SDS011;3530;52.832;10.680;2023-05-16T08:43:10;3.88;;;1.70;;
6979;SDS011;3530;52.832;10.680;2023-05-16T08:45:56;6.13;;;1.83;;
6979;SDS011;3530;52.832;10.680;2023-05-16T08:48:42;3.90;;;1.50;;
6979;SDS011;3530;52.832;10.680;2023-05-16T08:51:31;5.50;;;1.65;;
6979;SDS011;3530;52.832;10.680;2023-05-16T08:54:20;5.57;;;1.88;;
6979;SDS011;3530;52.832;10.680;2023-05-16T08:57:06;1.13;;;0.90;;
6979;SDS011;3530;52.832;10.680;2023-05-16T08:59:53;3.42;;;1.50;;
6979;SDS011;3530;52.832;10.680;2023-05-16T09:02:41;7.25;;;1.85;;
6979;SDS011;3530;52.832;10.680;2023-05-16T09:05:28;5.70;;;1.90;;
6979;SDS011;3530;52.832;10.680;2023-05-16T09:08:14;2.85;;;1.30;;
6979;SDS011;3530;52.832;10.680;2023-05-16T09:11:00;2.33;;;1.52;;
6979;SDS011;3530;52.832;10.680;2023-05-16T09:13:47;4.38;;;1.20;;
6979;SDS011;3530;52.832;10.680;2023-05-16T09:16:33;4.18;;;1.48;;
6979;SDS011;3530;52.832;10.680;2023-05-16T09:19:19;5.93;;;1.70;;
6979;SDS011;3530;52.832;10.680;2023-05-16T09:22:11;2.95;;;1.23;;
6979;SDS011;3530;52.832;10.680;2023-05-16T09:24:58;4.18;;;1.23;;
6979;SDS011;3530;52.832;10.680;2023-05-16T09:27:45;6.95;;;1.52;;
6979;SDS011;3530;52.832;10.680;2023-05-16T09:30:32;3.65;;;1.67;;
6979;SDS011;3530;52.832;10.680;2023-05-16T09:33:22;3.53;;;1.80;;
6979;SDS011;3530;52.832;10.680;2023-05-16T09:36:08;3.05;;;1.35;;
6979;SDS011;3530;52.832;10.680;2023-05-16T09:38:54;5.10;;;1.92;;
6979;SDS011;3530;52.832;10.680;2023-05-16T09:41:39;2.95;;;1.40;;
6979;SDS011;3530;52.832;10.680;2023-05-16T09:44:25;2.42;;;1.27;;
6979;SDS011;3530;52.832;10.680;2023-05-16T09:47:13;4.07;;;2.08;;
6979;SDS011;3530;52.832;10.680;2023-05-16T09:50:00;3.70;;;1.50;;
6979;SDS011;3530;52.832;10.680;2023-05-16T09:52:45;3.88;;;1.48;;
6979;SDS011;3530;52.832;10.680;2023-05-16T09:55:31;2.78;;;1.35;;
6979;SDS011;3530;52.832;10.680;2023-05-16T09:58:17;6.13;;;1.45;;
6979;SDS011;3530;52.832;10.680;2023-05-16T10:01:03;2.33;;;1.48;;
6979;SDS011;3530;52.832;10.680;2023-05-16T10:03:50;1.15;;;0.98;;
6979;SDS011;3530;52.832;10.680;2023-05-16T10:06:36;5.47;;;1.25;;
6979;SDS011;3530;52.832;10.680;2023-05-16T10:09:22;2.08;;;1.48;;
6979;SDS011;3530;52.832;10.680;2023-05-16T10:12:08;1.90;;;1.40;;
6979;SDS011;3530;52.832;10.680;2023-05-16T10:14:55;4.05;;;1.08;;
6979;SDS011;3530;52.832;10.680;2023-05-16T10:17:42;2.22;;;1.20;;
6979;SDS011;3530;52.832;10.680;2023-05-16T10:20:27;4.68;;;1.17;;
6979;SDS011;3530;52.832;10.680;2023-05-16T10:23:17;2.00;;;1.45;;
6979;SDS011;3530;52.832;10.680;2023-05-16T10:26:04;2.95;;;1.75;;
6979;SDS011;3530;52.832;10.680;2023-05-16T10:28:50;2.25;;;1.25;;
6979;SDS011;3530;52.832;10.680;2023-05-16T10:31:37;1.08;;;1.00;;
6979;SDS011;3530;52.832;10.680;2023-05-16T10:34:23;2.03;;;1.00;;
6979;SDS011;3530;52.832;10.680;2023-05-16T10:37:09;0.85;;;0.85;;
6979;SDS011;3530;52.832;10.680;2023-05-16T10:39:56;1.67;;;1.00;;
6979;SDS011;3530;52.832;10.680;2023-05-16T10:42:43;2.53;;;2.20;;
6979;SDS011;3530;52.832;10.680;2023-05-16T10:45:39;2.30;;;1.30;;
6979;SDS011;3530;52.832;10.680;2023-05-16T10:48:29;4.18;;;1.40;;
6979;SDS011;3530;52.832;10.680;2023-05-16T10:54:09;2.03;;;1.27;;
6979;SDS011;3530;52.832;10.680;2023-05-16T10:56:56;4.63;;;1.45;;
6979;SDS011;3530;52.832;10.680;2023-05-16T10:59:50;2.63;;;1.20;;
6979;SDS011;3530;52.832;10.680;2023-05-16T11:02:39;1.05;;;0.98;;
6979;SDS011;3530;52.832;10.680;2023-05-16T11:05:25;1.08;;;0.98;;
6979;SDS011;3530;52.832;10.680;2023-05-16T11:08:11;7.07;;;1.10;;
6979;SDS011;3530;52.832;10.680;2023-05-16T11:14:22;2.65;;;1.20;;
6979;SDS011;3530;52.832;10.680;2023-05-16T11:17:09;2.35;;;1.65;;
6979;SDS011;3530;52.832;10.680;2023-05-16T11:19:56;1.70;;;1.27;;
6979;SDS011;3530;52.832;10.680;2023-05-16T11:22:43;3.00;;;1.23;;
6979;SDS011;3530;52.832;10.680;2023-05-16T11:25:35;1.77;;;1.20;;
6979;SDS011;3530;52.832;10.680;2023-05-16T11:28:25;2.25;;;0.90;;
6979;SDS011;3530;52.832;10.680;2023-05-16T11:31:11;1.05;;;0.80;;
6979;SDS011;3530;52.832;10.680;2023-05-16T11:33:57;1.67;;;1.13;;
6979;SDS011;3530;52.832;10.680;2023-05-16T11:36:43;1.17;;;1.02;;
6979;SDS011;3530;52.832;10.680;2023-05-16T11:39:29;1.08;;;1.02;;
6979;SDS011;3530;52.832;10.680;2023-05-16T11:42:16;1.85;;;1.10;;
6979;SDS011;3530;52.832;10.680;2023-05-16T11:45:13;1.50;;;0.90;;
6979;SDS011;3530;52.832;10.680;2023-05-16T11:48:03;2.92;;;1.02;;
6979;SDS011;3530;52.832;10.680;2023-05-16T11:50:48;3.67;;;1.33;;
6979;SDS011;3530;52.832;10.680;2023-05-16T11:53:34;1.13;;;0.93;;
6979;SDS011;3530;52.832;10.680;2023-05-16T11:56:20;1.48;;;1.10;;
6979;SDS011;3530;52.832;10.680;2023-05-16T11:59:07;4.55;;;1.30;;
6979;SDS011;3530;52.832;10.680;2023-05-16T12:01:53;1.80;;;1.30;;
6979;SDS011;3530;52.832;10.680;2023-05-16T12:04:39;2.05;;;1.27;;
6979;SDS011;3530;52.832;10.680;2023-05-16T12:07:28;3.60;;;1.30;;
6979;SDS011;3530;52.832;10.680;2023-05-16T12:10:14;1.00;;;1.00;;
6979;SDS011;3530;52.832;10.680;2023-05-16T12:13:00;1.33;;;1.13;;
6979;SDS011;3530;52.832;10.680;2023-05-16T12:15:47;0.82;;;0.82;;
6979;SDS011;3530;52.832;10.680;2023-05-16T12:18:33;2.38;;;1.40;;
6979;SDS011;3530;52.832;10.680;2023-05-16T12:21:19;1.05;;;0.95;;
6979;SDS011;3530;52.832;10.680;2023-05-16T12:24:08;1.05;;;0.90;;
6979;SDS011;3530;52.832;10.680;2023-05-16T12:26:54;1.70;;;0.90;;
6979;SDS011;3530;52.832;10.680;2023-05-16T12:29:46;0.85;;;0.85;;
6979;SDS011;3530;52.832;10.680;2023-05-16T12:32:35;0.98;;;0.80;;
6979;SDS011;3530;52.832;10.680;2023-05-16T12:35:21;2.05;;;1.10;;
6979;SDS011;3530;52.832;10.680;2023-05-16T12:38:08;0.95;;;0.95;;
6979;SDS011;3530;52.832;10.680;2023-05-16T12:40:58;1.75;;;1.00;;
6979;SDS011;3530;52.832;10.680;2023-05-16T12:43:44;3.80;;;1.55;;
6979;SDS011;3530;52.832;10.680;2023-05-16T12:46:29;1.35;;;1.27;;
6979;SDS011;3530;52.832;10.680;2023-05-16T12:49:22;6.57;;;1.40;;
6979;SDS011;3530;52.832;10.680;2023-05-16T12:52:07;2.97;;;1.73;;
6979;SDS011;3530;52.832;10.680;2023-05-16T12:54:57;2.58;;;1.00;;
6979;SDS011;3530;52.832;10.680;2023-05-16T12:57:43;1.08;;;1.00;;
6979;SDS011;3530;52.832;10.680;2023-05-16T13:00:29;4.47;;;1.30;;
6979;SDS011;3530;52.832;10.680;2023-05-16T13:03:16;1.15;;;1.10;;
6979;SDS011;3530;52.832;10.680;2023-05-16T13:06:02;3.00;;;1.00;;
6979;SDS011;3530;52.832;10.680;2023-05-16T13:08:48;2.67;;;1.30;;
6979;SDS011;3530;52.832;10.680;2023-05-16T13:11:34;1.55;;;0.90;;
6979;SDS011;3530;52.832;10.680;2023-05-16T13:14:20;2.08;;;0.90;;
6979;SDS011;3530;52.832;10.680;2023-05-16T13:17:05;0.90;;;0.90;;
6979;SDS011;3530;52.832;10.680;2023-05-16T13:19:51;1.55;;;1.10;;
6979;SDS011;3530;52.832;10.680;2023-05-16T13:22:40;1.30;;;0.95;;
6979;SDS011;3530;52.832;10.680;2023-05-16T13:25:26;1.25;;;1.05;;
6979;SDS011;3530;52.832;10.680;2023-05-16T13:28:12;1.25;;;0.90;;
6979;SDS011;3530;52.832;10.680;2023-05-16T13:30:57;3.97;;;1.48;;
6979;SDS011;3530;52.832;10.680;2023-05-16T13:33:43;1.05;;;1.05;;
6979;SDS011;3530;52.832;10.680;2023-05-16T13:36:29;4.57;;;1.85;;
6979;SDS011;3530;52.832;10.680;2023-05-16T13:39:15;3.10;;;1.40;;
6979;SDS011;3530;52.832;10.680;2023-05-16T13:42:00;3.50;;;1.20;;
6979;SDS011;3530;52.832;10.680;2023-05-16T13:44:47;2.20;;;1.08;;
6979;SDS011;3530;52.832;10.680;2023-05-16T13:47:33;1.20;;;1.08;;
6979;SDS011;3530;52.832;10.680;2023-05-16T13:50:18;1.08;;;1.05;;
6979;SDS011;3530;52.832;10.680;2023-05-16T13:53:04;3.60;;;0.95;;
6979;SDS011;3530;52.832;10.680;2023-05-16T13:55:50;2.35;;;1.38;;
6979;SDS011;3530;52.832;10.680;2023-05-16T13:58:36;2.05;;;1.00;;
6979;SDS011;3530;52.832;10.680;2023-05-16T14:01:21;1.00;;;1.00;;
6979;SDS011;3530;52.832;10.680;2023-05-16T14:04:08;1.08;;;0.88;;
6979;SDS011;3530;52.832;10.680;2023-05-16T14:06:53;1.55;;;0.88;;
6979;SDS011;3530;52.832;10.680;2023-05-16T14:09:40;0.60;;;0.60;;
6979;SDS011;3530;52.832;10.680;2023-05-16T14:12:26;1.25;;;0.88;;
6979;SDS011;3530;52.832;10.680;2023-05-16T14:15:12;0.90;;;0.90;;
6979;SDS011;3530;52.832;10.680;2023-05-16T14:17:57;0.93;;;0.93;;
6979;SDS011;3530;52.832;10.680;2023-05-16T14:20:44;1.33;;;1.23;;
6979;SDS011;3530;52.832;10.680;2023-05-16T14:23:29;2.20;;;1.00;;
6979;SDS011;3530;52.832;10.680;2023-05-16T14:26:15;1.10;;;1.00;;
6979;SDS011;3530;52.832;10.680;2023-05-16T14:29:02;0.98;;;0.98;;
6979;SDS011;3530;52.832;10.680;2023-05-16T14:31:47;0.93;;;0.93;;
6979;SDS011;3530;52.832;10.680;2023-05-16T14:34:33;3.30;;;1.45;;
6979;SDS011;3530;52.832;10.680;2023-05-16T14:37:19;3.63;;;1.38;;
6979;SDS011;3530;52.832;10.680;2023-05-16T14:40:05;2.58;;;1.20;;
6979;SDS011;3530;52.832;10.680;2023-05-16T14:42:53;2.42;;;1.10;;
6979;SDS011;3530;52.832;10.680;2023-05-16T14:45:38;6.47;;;1.55;;
6979;SDS011;3530;52.832;10.680;2023-05-16T14:48:24;6.05;;;1.58;;
6979;SDS011;3530;52.832;10.680;2023-05-16T14:51:10;2.22;;;1.08;;
6979;SDS011;3530;52.832;10.680;2023-05-16T14:53:56;3.10;;;1.38;;
6979;SDS011;3530;52.832;10.680;2023-05-16T14:56:41;0.98;;;0.93;;
6979;SDS011;3530;52.832;10.680;2023-05-16T14:59:27;4.45;;;1.70;;
6979;SDS011;3530;52.832;10.680;2023-05-16T15:02:13;2.20;;;1.20;;
6979;SDS011;3530;52.832;10.680;2023-05-16T15:04:58;3.78;;;1.52;;
6979;SDS011;3530;52.832;10.680;2023-05-16T15:07:44;1.95;;;1.85;;
6979;SDS011;3530;52.832;10.680;2023-05-16T15:10:30;6.40;;;1.38;;
6979;SDS011;3530;52.832;10.680;2023-05-16T15:13:15;1.20;;;1.10;;
6979;SDS011;3530;52.832;10.680;2023-05-16T15:16:01;1.38;;;1.20;;
6979;SDS011;3530;52.832;10.680;2023-05-16T15:18:47;2.25;;;1.17;;
6979;SDS011;3530;52.832;10.680;2023-05-16T15:21:32;0.98;;;0.98;;
6979;SDS011;3530;52.832;10.680;2023-05-16T15:24:18;3.05;;;1.73;;
6979;SDS011;3530;52.832;10.680;2023-05-16T15:27:04;1.20;;;1.10;;
6979;SDS011;3530;52.832;10.680;2023-05-16T15:29:49;2.28;;;1.20;;
6979;SDS011;3530;52.832;10.680;2023-05-16T15:32:36;1.33;;;0.90;;
6979;SDS011;3530;52.832;10.680;2023-05-16T15:35:21;1.00;;;1.00;;
6979;SDS011;3530;52.832;10.680;2023-05-16T15:38:07;1.50;;;1.10;;
6979;SDS011;3530;52.832;10.680;2023-05-16T15:40:53;2.42;;;1.60;;
6979;SDS011;3530;52.832;10.680;2023-05-16T15:43:38;3.30;;;1.23;;
6979;SDS011;3530;52.832;10.680;2023-05-16T15:46:24;3.00;;;1.42;;
6979;SDS011;3530;52.832;10.680;2023-05-16T15:49:10;2.92;;;1.15;;
6979;SDS011;3530;52.832;10.680;2023-05-16T15:51:57;3.85;;;1.90;;
6979;SDS011;3530;52.832;10.680;2023-05-16T15:54:42;2.58;;;1.33;;
6979;SDS011;3530;52.832;10.680;2023-05-16T15:57:29;3.10;;;1.50;;
6979;SDS011;3530;52.832;10.680;2023-05-16T16:00:15;2.75;;;1.13;;
6979;SDS011;3530;52.832;10.680;2023-05-16T16:03:00;2.25;;;1.17;;
6979;SDS011;3530;52.832;10.680;2023-05-16T16:05:46;1.52;;;1.42;;
6979;SDS011;3530;52.832;10.680;2023-05-16T16:08:32;2.50;;;1.85;;
6979;SDS011;3530;52.832;10.680;2023-05-16T16:11:18;1.45;;;1.20;;
6979;SDS011;3530;52.832;10.680;2023-05-16T16:14:06;2.35;;;1.30;;
6979;SDS011;3530;52.832;10.680;2023-05-16T16:16:54;5.00;;;1.27;;
6979;SDS011;3530;52.832;10.680;2023-05-16T16:19:40;2.55;;;1.67;;
6979;SDS011;3530;52.832;10.680;2023-05-16T16:22:26;2.40;;;1.45;;
6979;SDS011;3530;52.832;10.680;2023-05-16T16:25:11;3.70;;;1.50;;
6979;SDS011;3530;52.832;10.680;2023-05-16T16:27:57;3.15;;;1.70;;
6979;SDS011;3530;52.832;10.680;2023-05-16T16:30:44;1.42;;;1.02;;
6979;SDS011;3530;52.832;10.680;2023-05-16T16:33:31;2.13;;;1.42;;
6979;SDS011;3530;52.832;10.680;2023-05-16T16:36:18;4.60;;;1.10;;
6979;SDS011;3530;52.832;10.680;2023-05-16T16:39:03;1.40;;;0.98;;
6979;SDS011;3530;52.832;10.680;2023-05-16T16:41:49;0.95;;;0.95;;
6979;SDS011;3530;52.832;10.680;2023-05-16T16:44:35;2.33;;;1.05;;
6979;SDS011;3530;52.832;10.680;2023-05-16T16:47:21;2.75;;;1.50;;
6979;SDS011;3530;52.832;10.680;2023-05-16T16:50:07;5.88;;;2.03;;
6979;SDS011;3530;52.832;10.680;2023-05-16T16:52:53;2.75;;;1.20;;
6979;SDS011;3530;52.832;10.680;2023-05-16T16:55:39;2.85;;;1.63;;
6979;SDS011;3530;52.832;10.680;2023-05-16T16:58:24;0.98;;;0.90;;
6979;SDS011;3530;52.832;10.680;2023-05-16T17:01:10;2.80;;;1.17;;
6979;SDS011;3530;52.832;10.680;2023-05-16T17:03:57;1.45;;;1.30;;
6979;SDS011;3530;52.832;10.680;2023-05-16T17:06:43;3.17;;;1.38;;